Time;durP1;ratioP1;P1;durP2;ratioP2;P2;SDS_P1;SDS_P2;PMS_P1;PMS_P2;Temp;Humidity;BMP_temperature;BMP_pressure;BME280_temperature;BME280_humidity;BME280_pressure;Samples;Min_cycle;Max_cycle;Signal;HPM_P1;HPM_P2
2021/12/09 00:01:08;;;;;;;2.63;1.40;;;23.30;99.90;;;;;;5082107;28;20184;-75
2021/12/09 00:03:42;;;;;;;5.18;1.40;;;23.30;99.90;;;;;;5080523;28;20266;-76
2021/12/09 00:06:17;;;;;;;3.80;1.40;;;23.60;99.90;;;;;;5092618;28;20250;-74
2021/12/09 00:08:48;;;;;;;5.10;1.20;;;24.00;99.90;;;;;;5090950;28;20549;-75
2021/12/09 00:11:22;;;;;;;3.88;1.40;;;24.10;99.90;;;;;;5081350;28;20189;-75
2021/12/09 00:13:53;;;;;;;3.00;1.33;;;23.80;99.90;;;;;;5081687;28;20197;-73
2021/12/09 00:16:25;;;;;;;4.18;1.48;;;23.60;99.90;;;;;;5092619;28;20568;-76
2021/12/09 00:18:56;;;;;;;4.25;1.45;;;23.90;99.90;;;;;;5076900;28;20188;-74
2021/12/09 00:21:27;;;;;;;4.13;1.30;;;24.00;99.90;;;;;;5080947;28;20214;-74
2021/12/09 00:23:57;;;;;;;3.88;1.35;;;24.10;99.90;;;;;;5087403;28;20220;-75
2021/12/09 00:26:28;;;;;;;3.58;1.30;;;24.20;99.90;;;;;;5087350;28;20246;-74
2021/12/09 00:28:59;;;;;;;2.17;1.35;;;24.30;99.90;;;;;;5074982;28;20216;-74
2021/12/09 00:31:31;;;;;;;3.28;1.08;;;24.40;99.90;;;;;;5091208;28;20210;-74
2021/12/09 00:34:02;;;;;;;4.85;1.33;;;24.10;99.90;;;;;;5089138;28;20224;-74
2021/12/09 00:36:40;;;;;;;4.63;1.65;;;24.20;99.90;;;;;;5081209;28;20659;-74
2021/12/09 00:39:13;;;;;;;2.75;1.20;;;24.40;99.90;;;;;;5082515;28;20223;-75
2021/12/09 00:41:43;;;;;;;6.50;1.35;;;24.30;99.90;;;;;;5084119;28;20204;-74
2021/12/09 00:44:14;;;;;;;5.70;1.52;;;24.10;99.90;;;;;;5089330;28;20192;-74
2021/12/09 00:46:47;;;;;;;7.32;1.52;;;24.10;99.90;;;;;;5081184;28;20181;-74
2021/12/09 00:49:20;;;;;;;6.18;1.60;;;24.00;99.90;;;;;;5091605;28;20224;-74
2021/12/09 00:51:51;;;;;;;2.97;1.20;;;23.80;99.90;;;;;;5085058;28;20220;-75
2021/12/09 00:54:21;;;;;;;6.53;1.40;;;23.70;99.90;;;;;;5081680;28;20180;-74
2021/12/09 00:56:52;;;;;;;5.43;1.50;;;23.60;99.90;;;;;;5080976;28;20196;-75
2021/12/09 00:59:23;;;;;;;4.80;1.70;;;23.90;99.90;;;;;;5080544;28;20189;-74
2021/12/09 01:01:56;;;;;;;6.88;1.60;;;23.80;99.90;;;;;;5072922;28;20197;-74
2021/12/09 01:04:27;;;;;;;4.70;1.40;;;24.00;99.90;;;;;;5084465;28;20184;-75
2021/12/09 01:06:58;;;;;;;6.30;1.63;;;24.00;99.90;;;;;;5084413;28;20193;-74
2021/12/09 01:09:28;;;;;;;4.32;1.40;;;24.00;99.90;;;;;;5080620;28;20271;-75
2021/12/09 01:11:59;;;;;;;4.57;1.50;;;23.90;99.90;;;;;;5088262;28;20192;-74
2021/12/09 01:14:30;;;;;;;5.50;1.30;;;24.00;99.90;;;;;;5080745;28;20226;-74
2021/12/09 01:17:03;;;;;;;5.40;1.50;;;23.90;99.90;;;;;;5084308;28;20193;-75
2021/12/09 01:19:33;;;;;;;4.78;1.30;;;23.80;99.90;;;;;;5072778;28;20193;-74
2021/12/09 01:22:04;;;;;;;5.85;1.67;;;23.70;99.90;;;;;;5073641;28;20663;-74
2021/12/09 01:24:35;;;;;;;5.28;1.50;;;23.70;99.90;;;;;;5078950;28;20181;-75
2021/12/09 01:27:06;;;;;;;2.97;1.40;;;23.60;99.90;;;;;;5075045;28;20185;-74
2021/12/09 01:29:39;;;;;;;5.22;1.27;;;23.70;99.90;;;;;;5087506;28;20707;-74
2021/12/09 01:32:13;;;;;;;3.45;1.40;;;23.60;99.90;;;;;;5080008;28;20189;-76
2021/12/09 01:34:44;;;;;;;4.90;1.63;;;23.70;99.90;;;;;;5082590;28;20240;-74
2021/12/09 01:37:14;;;;;;;5.43;1.42;;;23.60;99.90;;;;;;5078921;28;20224;-77
2021/12/09 01:39:45;;;;;;;4.28;1.45;;;23.60;99.90;;;;;;5079162;28;20197;-76
2021/12/09 01:42:16;;;;;;;4.88;1.63;;;23.70;99.90;;;;;;5088240;28;20197;-77
2021/12/09 01:44:47;;;;;;;5.68;1.63;;;23.50;99.90;;;;;;5088332;28;20310;-75
2021/12/09 01:47:20;;;;;;;5.15;1.42;;;23.40;99.90;;;;;;5091401;28;20196;-75
2021/12/09 01:49:51;;;;;;;5.63;1.67;;;23.20;99.90;;;;;;5076328;28;20296;-75
2021/12/09 01:52:24;;;;;;;7.95;1.95;;;23.00;99.90;;;;;;5089212;28;20204;-75
2021/12/09 01:54:55;;;;;;;6.05;1.90;;;22.90;99.90;;;;;;5091611;28;20272;-77
2021/12/09 01:57:26;;;;;;;8.23;1.90;;;23.00;99.90;;;;;;5082421;28;20197;-77
2021/12/09 01:59:56;;;;;;;6.55;1.73;;;23.10;99.90;;;;;;5092547;28;20192;-75
2021/12/09 02:02:29;;;;;;;5.03;1.70;;;23.10;99.90;;;;;;5081234;28;20641;-77
2021/12/09 02:05:03;;;;;;;7.60;1.80;;;23.10;99.90;;;;;;5082251;28;20188;-75
2021/12/09 02:07:33;;;;;;;7.20;2.13;;;23.20;99.90;;;;;;5087876;28;20588;-76
2021/12/09 02:10:05;;;;;;;6.40;1.80;;;23.20;99.90;;;;;;5080985;28;20228;-76
2021/12/09 02:12:36;;;;;;;9.13;2.15;;;23.20;99.90;;;;;;5082837;28;20249;-77
2021/12/09 02:15:08;;;;;;;5.60;1.80;;;23.30;99.90;;;;;;5084618;28;20196;-76
2021/12/09 02:17:40;;;;;;;6.18;1.80;;;23.30;99.90;;;;;;5085290;28;20251;-76
2021/12/09 02:20:13;;;;;;;8.18;2.17;;;23.10;99.90;;;;;;5087154;28;20539;-75
2021/12/09 02:22:50;;;;;;;6.35;1.85;;;23.10;99.90;;;;;;5091841;28;20196;-75
2021/12/09 02:25:21;;;;;;;10.07;2.40;;;23.00;99.90;;;;;;5079049;28;20632;-74
2021/12/09 02:27:52;;;;;;;8.07;2.10;;;22.90;99.90;;;;;;5081770;28;20192;-75
2021/12/09 02:30:23;;;;;;;6.82;1.85;;;22.90;99.90;;;;;;5092197;28;20181;-75
2021/12/09 02:32:54;;;;;;;7.18;2.13;;;22.90;99.90;;;;;;5088473;28;20664;-76
2021/12/09 02:35:24;;;;;;;7.35;2.00;;;22.90;99.90;;;;;;5087276;28;20197;-75
2021/12/09 02:37:57;;;;;;;6.88;2.22;;;22.90;99.90;;;;;;5077946;28;20274;-75
2021/12/09 02:40:28;;;;;;;8.90;2.30;;;23.00;99.90;;;;;;5082454;28;20246;-75
2021/12/09 02:42:58;;;;;;;7.10;2.20;;;23.00;99.90;;;;;;5080957;28;20219;-76
2021/12/09 02:45:29;;;;;;;6.95;1.95;;;23.00;99.90;;;;;;5082974;28;20185;-75
2021/12/09 02:48:00;;;;;;;10.77;2.28;;;23.00;99.90;;;;;;5083424;28;20189;-75
2021/12/09 02:50:30;;;;;;;8.68;2.35;;;23.00;99.90;;;;;;5085311;28;20189;-75
2021/12/09 02:53:03;;;;;;;9.75;2.20;;;22.90;99.90;;;;;;5083011;28;20188;-75
2021/12/09 02:55:33;;;;;;;6.93;1.95;;;22.70;99.90;;;;;;5078359;28;20189;-75
2021/12/09 02:58:04;;;;;;;6.63;1.75;;;22.60;99.90;;;;;;5082593;28;20247;-75
2021/12/09 03:00:35;;;;;;;9.70;1.80;;;22.60;99.90;;;;;;5085727;28;20233;-75
2021/12/09 03:03:08;;;;;;;8.10;2.08;;;22.50;99.90;;;;;;5074877;28;20189;-76
2021/12/09 03:05:40;;;;;;;4.55;1.90;;;22.50;99.90;;;;;;5090567;28;20632;-75
2021/12/09 03:08:18;;;;;;;13.05;2.35;;;22.40;99.90;;;;;;5082483;28;20293;-75
2021/12/09 03:10:49;;;;;;;6.40;1.60;;;22.50;99.90;;;;;;5080581;28;20200;-76
2021/12/09 03:13:20;;;;;;;7.75;2.08;;;22.60;99.90;;;;;;5077495;28;20196;-76
2021/12/09 03:15:51;;;;;;;8.77;2.05;;;22.50;99.90;;;;;;5083165;28;20275;-76
2021/12/09 03:18:21;;;;;;;6.63;2.00;;;22.50;99.90;;;;;;5084464;28;20203;-75
2021/12/09 03:20:52;;;;;;;6.35;1.90;;;22.40;99.90;;;;;;5079004;28;20212;-75
2021/12/09 03:23:26;;;;;;;6.28;2.10;;;22.50;99.90;;;;;;5078352;28;20193;-75
2021/12/09 03:25:57;;;;;;;8.10;2.10;;;22.60;99.90;;;;;;5082458;28;20214;-75
2021/12/09 03:28:31;;;;;;;13.10;2.20;;;22.50;99.90;;;;;;5082002;28;20204;-76
2021/12/09 03:31:02;;;;;;;9.18;1.98;;;22.40;99.90;;;;;;5083509;28;20196;-77
2021/12/09 03:33:32;;;;;;;6.07;1.77;;;22.50;99.90;;;;;;5083286;28;20227;-74
2021/12/09 03:36:06;;;;;;;7.78;1.88;;;22.60;99.90;;;;;;5080951;28;20212;-75
2021/12/09 03:38:39;;;;;;;9.52;2.00;;;22.50;99.90;;;;;;5076998;28;20232;-76
2021/12/09 03:41:10;;;;;;;6.32;1.70;;;22.30;99.90;;;;;;5079720;28;20201;-75
2021/12/09 03:43:41;;;;;;;7.88;2.15;;;22.20;99.90;;;;;;5082047;28;20204;-75
2021/12/09 03:46:12;;;;;;;12.75;2.10;;;22.10;99.90;;;;;;5083027;28;20653;-74
2021/12/09 03:48:43;;;;;;;9.02;2.00;;;22.00;99.90;;;;;;5081386;28;20216;-75
2021/12/09 03:51:13;;;;;;;9.55;2.30;;;21.90;99.90;;;;;;5076078;28;20672;-75
2021/12/09 03:53:46;;;;;;;7.53;2.20;;;21.80;99.90;;;;;;5083284;28;20192;-75
2021/12/09 03:56:20;;;;;;;9.15;2.45;;;21.80;99.90;;;;;;5082213;28;20192;-77
2021/12/09 03:58:54;;;;;;;8.52;2.10;;;21.80;99.90;;;;;;5082517;28;20200;-76
2021/12/09 04:01:24;;;;;;;8.52;2.42;;;22.00;99.90;;;;;;5083829;28;20211;-75
2021/12/09 04:03:56;;;;;;;6.80;1.88;;;22.10;99.90;;;;;;5081720;28;20208;-77
2021/12/09 04:06:29;;;;;;;9.32;2.03;;;22.20;99.90;;;;;;5083841;28;20675;-74
2021/12/09 04:09:02;;;;;;;6.28;1.80;;;22.20;99.90;;;;;;5079907;28;20216;-75
2021/12/09 04:11:33;;;;;;;8.25;1.98;;;22.30;99.90;;;;;;5080272;28;20305;-74
2021/12/09 04:14:04;;;;;;;8.38;2.00;;;22.40;99.90;;;;;;5085272;28;20620;-76
2021/12/09 04:16:35;;;;;;;8.57;2.35;;;22.50;99.90;;;;;;5079502;28;20191;-75
2021/12/09 04:19:06;;;;;;;10.95;1.98;;;22.50;99.90;;;;;;5082920;28;20193;-75
2021/12/09 04:21:37;;;;;;;7.35;1.80;;;22.60;99.90;;;;;;5081110;28;20185;-75
2021/12/09 04:24:11;;;;;;;9.35;2.70;;;22.60;99.90;;;;;;5088270;28;20185;-75
2021/12/09 04:26:45;;;;;;;7.03;1.98;;;22.70;99.90;;;;;;5091618;28;20266;-75
2021/12/09 04:29:16;;;;;;;9.02;2.10;;;22.80;99.90;;;;;;5083008;28;20215;-75
2021/12/09 04:31:48;;;;;;;7.60;2.05;;;22.90;99.90;;;;;;5076648;28;20717;-73
2021/12/09 04:34:19;;;;;;;9.65;2.13;;;22.70;99.90;;;;;;5083293;28;20748;-75
2021/12/09 04:36:50;;;;;;;8.43;1.83;;;22.50;99.90;;;;;;5080819;28;20599;-75
2021/12/09 04:39:22;;;;;;;8.07;2.00;;;22.50;99.90;;;;;;5078413;28;20557;-74
2021/12/09 04:41:54;;;;;;;8.23;2.33;;;22.40;99.90;;;;;;5080884;28;20204;-74
2021/12/09 04:44:25;;;;;;;10.98;1.88;;;22.60;99.90;;;;;;5084622;28;20600;-74
2021/12/09 04:46:56;;;;;;;5.85;2.05;;;22.60;99.90;;;;;;5086493;28;20652;-74
2021/12/09 04:49:27;;;;;;;7.43;2.03;;;22.50;99.90;;;;;;5091362;28;20204;-75
2021/12/09 04:52:00;;;;;;;6.30;1.90;;;22.60;99.90;;;;;;5086439;28;20637;-76
2021/12/09 04:54:32;;;;;;;7.05;1.70;;;22.60;99.90;;;;;;5090618;28;20188;-76
2021/12/09 04:57:03;;;;;;;6.75;1.80;;;22.60;99.90;;;;;;5091503;28;20200;-75
2021/12/09 04:59:34;;;;;;;5.05;1.48;;;22.50;99.90;;;;;;5090547;28;20195;-76
2021/12/09 05:02:09;;;;;;;7.93;1.80;;;22.50;99.90;;;;;;5087110;28;20192;-75
2021/12/09 05:04:42;;;;;;;6.85;1.70;;;22.40;99.90;;;;;;5086271;28;20188;-76
2021/12/09 05:07:16;;;;;;;5.38;1.63;;;22.40;99.90;;;;;;5086773;28;20613;-75
2021/12/09 05:09:52;;;;;;;3.67;1.38;;;22.30;99.90;;;;;;5090104;28;20212;-75
2021/12/09 05:12:24;;;;;;;6.78;1.63;;;22.40;99.90;;;;;;5091524;28;20727;-76
2021/12/09 05:14:55;;;;;;;6.55;1.60;;;22.50;99.90;;;;;;5085329;28;20196;-77
2021/12/09 05:17:26;;;;;;;5.70;1.63;;;22.60;99.90;;;;;;5088969;28;20188;-76
2021/12/09 05:19:56;;;;;;;7.88;2.10;;;22.60;99.90;;;;;;5092338;28;20200;-76
2021/12/09 05:22:27;;;;;;;6.25;1.70;;;22.60;99.90;;;;;;5088250;28;20240;-76
2021/12/09 05:25:00;;;;;;;4.63;1.77;;;22.50;99.90;;;;;;5086679;28;20195;-76
2021/12/09 05:27:30;;;;;;;6.13;1.67;;;22.20;99.90;;;;;;5084179;28;20193;-76
2021/12/09 05:30:07;;;;;;;5.78;1.70;;;21.90;99.90;;;;;;5091685;28;20303;-76
2021/12/09 05:32:38;;;;;;;7.40;1.70;;;21.80;99.90;;;;;;5089756;28;20675;-78
2021/12/09 05:35:10;;;;;;;4.78;1.77;;;21.50;99.90;;;;;;5093690;28;20200;-77
2021/12/09 05:37:40;;;;;;;4.70;1.60;;;21.30;99.90;;;;;;5086621;28;20220;-76
2021/12/09 05:40:15;;;;;;;10.25;1.77;;;21.20;99.90;;;;;;5091892;28;20668;-76
2021/12/09 05:42:45;;;;;;;8.02;1.80;;;21.10;99.90;;;;;;5086665;28;20180;-76
2021/12/09 05:45:16;;;;;;;4.53;1.67;;;21.00;99.90;;;;;;5085560;28;20204;-76
2021/12/09 05:47:47;;;;;;;5.35;1.60;;;21.10;99.90;;;;;;5086971;28;20250;-76
2021/12/09 05:50:17;;;;;;;5.50;1.88;;;21.00;99.90;;;;;;5086683;28;20671;-76
2021/12/09 05:52:48;;;;;;;5.93;1.70;;;21.00;99.90;;;;;;5088942;28;20207;-76
2021/12/09 05:55:21;;;;;;;7.72;2.30;;;20.90;99.90;;;;;;5086096;28;20270;-75
2021/12/09 05:57:51;;;;;;;10.13;2.90;;;20.80;99.90;;;;;;5088712;28;20271;-75
2021/12/09 06:00:22;;;;;;;7.85;2.65;;;20.60;99.90;;;;;;5089254;28;20184;-77
2021/12/09 06:02:53;;;;;;;10.32;2.40;;;20.40;99.90;;;;;;5085651;28;20189;-76
2021/12/09 06:05:24;;;;;;;7.43;2.22;;;20.20;99.90;;;;;;5079235;28;20197;-84
2021/12/09 06:07:55;;;;;;;6.72;2.60;;;19.90;99.90;;;;;;5086473;28;20250;-87
2021/12/09 06:10:28;;;;;;;9.68;2.50;;;19.70;99.90;;;;;;5080867;28;20315;-88
2021/12/09 06:12:59;;;;;;;6.32;2.53;;;19.50;99.90;;;;;;5086238;28;20282;-85
2021/12/09 06:15:30;;;;;;;9.23;2.45;;;19.40;99.90;;;;;;5085618;28;20203;-86
2021/12/09 06:18:01;;;;;;;8.63;3.10;;;19.50;99.90;;;;;;5089507;28;20185;-85
2021/12/09 06:20:32;;;;;;;7.30;2.60;;;19.60;99.90;;;;;;5094439;28;20188;-83
2021/12/09 06:23:03;;;;;;;8.13;2.95;;;19.60;99.90;;;;;;5089398;28;20196;-87
2021/12/09 06:25:35;;;;;;;8.32;3.47;;;19.40;99.90;;;;;;5086147;28;20193;-81
2021/12/09 06:28:06;;;;;;;8.93;3.40;;;19.60;99.90;;;;;;5080428;28;20747;-81
2021/12/09 06:30:37;;;;;;;7.00;2.53;;;19.60;99.90;;;;;;5092386;28;20299;-82
2021/12/09 06:33:08;;;;;;;7.78;2.83;;;19.60;99.90;;;;;;5092312;28;20253;-81
2021/12/09 06:35:40;;;;;;;7.80;2.40;;;19.50;99.90;;;;;;5084906;28;20544;-84
2021/12/09 06:38:14;;;;;;;8.48;2.50;;;19.50;99.90;;;;;;5082897;28;20208;-80
2021/12/09 06:40:47;;;;;;;9.93;2.40;;;19.40;99.90;;;;;;5082340;28;20340;-79
2021/12/09 06:43:18;;;;;;;5.88;2.55;;;19.30;99.90;;;;;;5088151;28;20192;-81
2021/12/09 06:45:49;;;;;;;8.48;2.55;;;19.30;99.90;;;;;;5085993;28;20188;-88
2021/12/09 06:48:19;;;;;;;6.97;2.28;;;19.40;99.90;;;;;;5088060;28;20530;-90
2021/12/09 06:50:50;;;;;;;8.05;2.13;;;19.30;99.90;;;;;;5084502;28;20578;-78
2021/12/09 06:53:21;;;;;;;8.68;2.63;;;19.30;99.90;;;;;;5080756;28;20200;-76
2021/12/09 06:55:56;;;;;;;7.85;2.25;;;19.30;99.90;;;;;;5086865;28;20242;-83
2021/12/09 06:58:28;;;;;;;6.72;2.40;;;19.30;99.90;;;;;;5084257;28;20185;-87
2021/12/09 07:01:00;;;;;;;9.68;2.50;;;19.30;99.90;;;;;;5080789;28;20668;-77
2021/12/09 07:03:32;;;;;;;6.53;2.30;;;19.30;99.90;;;;;;5084385;28;20185;-78
2021/12/09 07:06:06;;;;;;;6.60;2.20;;;19.30;99.90;;;;;;5086187;28;20196;-76
2021/12/09 07:08:42;;;;;;;10.60;2.40;;;19.30;99.90;;;;;;5081500;28;20275;-78
2021/12/09 07:11:15;;;;;;;7.50;2.20;;;19.40;99.90;;;;;;5082315;28;20618;-77
2021/12/09 07:13:46;;;;;;;8.55;2.00;;;19.40;99.90;;;;;;5074404;28;20185;-77
2021/12/09 07:16:17;;;;;;;7.63;2.22;;;19.30;99.90;;;;;;5084805;28;20184;-76
2021/12/09 07:18:48;;;;;;;8.82;1.90;;;19.30;99.90;;;;;;5085526;28;20195;-76
2021/12/09 07:21:19;;;;;;;6.80;2.20;;;19.30;99.90;;;;;;5084718;28;20201;-76
2021/12/09 07:23:49;;;;;;;8.60;2.10;;;19.40;99.90;;;;;;5087382;28;20225;-79
2021/12/09 07:26:22;;;;;;;6.68;2.30;;;19.40;99.90;;;;;;5077239;28;20211;-76
2021/12/09 07:28:52;;;;;;;10.50;2.35;;;19.40;99.90;;;;;;5085671;28;20188;-76
2021/12/09 07:31:24;;;;;;;10.00;2.65;;;19.40;99.90;;;;;;5084025;28;20690;-77
2021/12/09 07:33:56;;;;;;;7.35;2.55;;;19.40;99.90;;;;;;5080125;28;20236;-80
2021/12/09 07:36:27;;;;;;;8.82;2.42;;;19.30;99.90;;;;;;5082173;28;20189;-77
2021/12/09 07:38:58;;;;;;;7.20;2.50;;;19.40;99.90;;;;;;5083094;28;20230;-76
2021/12/09 07:41:30;;;;;;;8.32;2.50;;;19.40;99.90;;;;;;5086098;28;20200;-75
2021/12/09 07:44:02;;;;;;;8.75;2.67;;;19.40;99.90;;;;;;5081568;28;20194;-80
2021/12/09 07:46:33;;;;;;;4.82;2.28;;;19.20;99.90;;;;;;5089216;28;20192;-87
2021/12/09 07:49:03;;;;;;;8.90;2.50;;;19.40;99.90;;;;;;5081629;28;20191;-84
2021/12/09 07:51:34;;;;;;;11.10;2.80;;;19.30;99.90;;;;;;5075960;28;20205;-85
2021/12/09 07:54:05;;;;;;;10.25;2.92;;;19.30;99.90;;;;;;5088568;28;20192;-86
2021/12/09 07:56:37;;;;;;;11.10;3.15;;;19.40;99.90;;;;;;5086494;28;20196;-85
2021/12/09 07:59:08;;;;;;;7.70;3.15;;;19.40;99.90;;;;;;5080940;28;20200;-85
2021/12/09 08:01:38;;;;;;;8.32;3.08;;;19.40;99.90;;;;;;5085675;28;20200;-83
2021/12/09 08:04:10;;;;;;;5.95;2.92;;;19.40;99.90;;;;;;5085391;28;20184;-79
2021/12/09 08:06:41;;;;;;;8.32;2.50;;;19.30;99.90;;;;;;5078257;28;20268;-87
2021/12/09 08:09:12;;;;;;;8.52;3.08;;;19.30;99.90;;;;;;5087231;28;20192;-88
2021/12/09 08:11:45;;;;;;;6.43;2.40;;;19.30;99.90;;;;;;5084122;28;20234;-83
2021/12/09 08:14:18;;;;;;;8.23;2.60;;;19.20;99.90;;;;;;5082088;28;20649;-89
2021/12/09 08:16:57;;;;;;;10.85;2.70;;;19.20;99.90;;;;;;5077929;28;20613;-91
2021/12/09 08:19:28;;;;;;;8.57;3.17;;;19.20;99.90;;;;;;5084715;28;20184;-89
2021/12/09 08:21:59;;;;;;;10.85;2.83;;;19.30;99.90;;;;;;5087147;28;20201;-77
2021/12/09 08:24:32;;;;;;;9.63;2.72;;;19.10;99.90;;;;;;5081447;28;20624;-86
2021/12/09 08:27:05;;;;;;;8.60;2.85;;;19.20;99.90;;;;;;5084466;28;20181;-86
2021/12/09 08:29:35;;;;;;;8.82;2.97;;;19.20;99.90;;;;;;5078081;28;20188;-79
2021/12/09 08:32:06;;;;;;;9.55;3.20;;;19.10;99.90;;;;;;5082992;28;20213;-90
2021/12/09 08:34:37;;;;;;;10.55;3.10;;;19.10;99.90;;;;;;5085110;28;20231;-79
2021/12/09 08:37:08;;;;;;;7.25;3.30;;;19.10;99.90;;;;;;5084764;28;20231;-78
2021/12/09 08:39:38;;;;;;;14.52;3.70;;;19.20;99.90;;;;;;5089908;28;20606;-78
2021/12/09 08:42:11;;;;;;;11.52;3.58;;;19.20;99.90;;;;;;5086498;28;20192;-76
2021/12/09 08:44:42;;;;;;;8.50;3.65;;;19.20;99.90;;;;;;5076441;28;20234;-76
2021/12/09 08:47:13;;;;;;;9.20;3.60;;;19.20;99.90;;;;;;5072945;28;20197;-77
2021/12/09 08:49:44;;;;;;;9.23;3.20;;;19.20;99.90;;;;;;5079158;28;20199;-77
2021/12/09 08:52:15;;;;;;;10.93;3.30;;;19.20;99.90;;;;;;5080521;28;20219;-77
2021/12/09 08:54:45;;;;;;;8.05;3.00;;;19.20;99.90;;;;;;5074989;28;20200;-76
2021/12/09 08:57:19;;;;;;;11.05;3.30;;;19.20;99.90;;;;;;5082669;28;20189;-78
2021/12/09 08:59:50;;;;;;;11.57;2.88;;;19.20;99.90;;;;;;5078618;28;20201;-77
2021/12/09 09:02:21;;;;;;;6.88;2.55;;;19.20;99.90;;;;;;5087348;28;20199;-76
2021/12/09 09:04:52;;;;;;;7.05;2.60;;;19.10;99.90;;;;;;5082967;28;20197;-76
2021/12/09 09:07:23;;;;;;;11.05;3.33;;;19.10;99.90;;;;;;5089178;28;20191;-76
2021/12/09 09:09:54;;;;;;;8.02;2.80;;;19.00;99.90;;;;;;5078763;28;20212;-76
2021/12/09 09:12:30;;;;;;;10.65;3.05;;;19.00;99.90;;;;;;5078843;28;20204;-76
2021/12/09 09:15:00;;;;;;;10.70;2.78;;;19.00;99.90;;;;;;5079876;28;20206;-77
2021/12/09 09:17:31;;;;;;;8.43;2.63;;;19.00;99.90;;;;;;5079667;28;20185;-76
2021/12/09 09:20:02;;;;;;;8.77;2.83;;;19.00;99.90;;;;;;5082290;28;20184;-76
2021/12/09 09:22:33;;;;;;;7.75;2.40;;;19.00;99.90;;;;;;5089336;28;20184;-77
2021/12/09 09:25:03;;;;;;;10.68;3.00;;;19.00;99.90;;;;;;5081566;28;20193;-77
2021/12/09 09:27:36;;;;;;;7.63;2.70;;;19.00;99.90;;;;;;5077807;28;20185;-76
2021/12/09 09:30:09;;;;;;;6.78;2.80;;;19.00;99.90;;;;;;5076427;28;20181;-76
2021/12/09 09:32:39;;;;;;;7.63;2.95;;;19.10;99.90;;;;;;5086240;28;20192;-76
2021/12/09 09:35:11;;;;;;;7.53;3.00;;;19.10;99.90;;;;;;5074248;28;20243;-77
2021/12/09 09:37:42;;;;;;;7.40;2.90;;;19.10;99.90;;;;;;5083072;28;20220;-76
2021/12/09 09:40:15;;;;;;;8.38;2.85;;;19.10;99.90;;;;;;5082186;28;20205;-75
2021/12/09 09:43:01;;;;;;;7.65;2.55;;;19.10;99.90;;;;;;5091238;28;20184;-77
2021/12/09 09:45:34;;;;;;;8.95;3.10;;;19.10;99.90;;;;;;5082028;28;20647;-76
2021/12/09 09:48:06;;;;;;;6.88;2.95;;;19.10;99.90;;;;;;5078576;28;20633;-76
2021/12/09 09:50:37;;;;;;;8.75;2.90;;;19.10;99.90;;;;;;5089291;28;20204;-76
2021/12/09 09:53:10;;;;;;;7.07;2.40;;;19.10;99.90;;;;;;5083512;28;20184;-75
2021/12/09 09:55:41;;;;;;;9.23;3.03;;;19.10;99.90;;;;;;5085047;28;20181;-76
2021/12/09 09:58:14;;;;;;;10.82;3.22;;;19.20;99.90;;;;;;5083329;28;20189;-76
2021/12/09 10:00:45;;;;;;;9.45;3.00;;;19.20;99.90;;;;;;5087720;28;20242;-77
2021/12/09 10:03:18;;;;;;;7.03;3.10;;;19.30;99.90;;;;;;5084810;28;20193;-76
2021/12/09 10:05:51;;;;;;;8.95;3.00;;;19.30;99.90;;;;;;5091626;28;20594;-76
2021/12/09 10:08:22;;;;;;;12.73;2.90;;;19.30;99.90;;;;;;5084337;28;20243;-76
2021/12/09 10:10:52;;;;;;;5.47;2.58;;;19.30;99.90;;;;;;5087048;28;20327;-78
2021/12/09 10:13:31;;;;;;;5.93;2.50;;;19.40;99.90;;;;;;5083051;28;20188;-75
2021/12/09 10:16:05;;;;;;;10.52;2.92;;;19.30;99.90;;;;;;5090276;28;20184;-76
2021/12/09 10:18:39;;;;;;;8.43;2.70;;;19.30;99.90;;;;;;5078528;28;20196;-75
2021/12/09 10:21:11;;;;;;;9.13;2.70;;;19.30;99.90;;;;;;5083318;28;20196;-77
2021/12/09 10:23:45;;;;;;;5.65;2.72;;;19.20;99.90;;;;;;5084421;28;20233;-75
2021/12/09 10:26:30;;;;;;;10.13;3.03;;;19.30;99.90;;;;;;5078978;28;20246;-76
2021/12/09 10:29:13;;;;;;;7.60;2.70;;;19.30;99.90;;;;;;5080056;28;20192;-81
2021/12/09 10:31:48;;;;;;;6.40;2.78;;;19.20;99.90;;;;;;5081222;28;20285;-79
2021/12/09 10:34:35;;;;;;;8.25;2.72;;;19.20;99.90;;;;;;5075379;28;20228;-84
2021/12/09 10:37:09;;;;;;;6.80;2.75;;;19.20;99.90;;;;;;5074848;28;20312;-82
2021/12/09 10:39:46;;;;;;;6.55;2.78;;;19.20;99.90;;;;;;5077415;28;20200;-76
2021/12/09 10:42:24;;;;;;;6.25;2.58;;;19.10;99.90;;;;;;5083580;28;20276;-80
2021/12/09 10:45:00;;;;;;;7.30;2.92;;;19.10;99.90;;;;;;5082698;28;20649;-76
2021/12/09 10:47:47;;;;;;;5.40;2.72;;;19.10;99.90;;;;;;5083439;28;20180;-79
2021/12/09 10:50:27;;;;;;;6.25;2.60;;;19.00;99.90;;;;;;5076847;28;20656;-76
2021/12/09 10:53:03;;;;;;;4.53;2.42;;;19.00;99.90;;;;;;5082177;28;20213;-77
2021/12/09 10:55:35;;;;;;;3.97;2.53;;;19.00;99.90;;;;;;5082954;28;20188;-76
2021/12/09 10:58:11;;;;;;;5.78;2.50;;;19.00;99.90;;;;;;5078466;28;20201;-85
2021/12/09 11:00:47;;;;;;;6.65;2.83;;;18.90;99.90;;;;;;5083799;28;20640;-79
2021/12/09 11:03:23;;;;;;;6.30;2.97;;;18.90;99.90;;;;;;5085402;28;20192;-80
2021/12/09 11:06:00;;;;;;;6.10;2.78;;;18.90;99.90;;;;;;5080589;28;20196;-85
2021/12/09 11:08:36;;;;;;;4.30;2.33;;;18.90;99.90;;;;;;5080819;28;20688;-84
2021/12/09 11:11:10;;;;;;;6.28;2.58;;;18.90;99.90;;;;;;5085357;28;20627;-88
2021/12/09 11:13:56;;;;;;;4.38;2.42;;;18.80;99.90;;;;;;5085916;28;20192;-84
2021/12/09 11:16:31;;;;;;;5.40;2.53;;;18.90;99.90;;;;;;5088378;28;20196;-83
2021/12/09 11:19:10;;;;;;;6.63;2.67;;;18.80;99.90;;;;;;5081012;28;20192;-79
2021/12/09 11:21:43;;;;;;;5.57;2.80;;;18.80;99.90;;;;;;5079687;28;20543;-82
2021/12/09 11:24:16;;;;;;;3.70;2.38;;;18.80;99.90;;;;;;5077810;28;20196;-79
2021/12/09 11:26:55;;;;;;;4.90;2.50;;;18.70;99.90;;;;;;5080597;28;20280;-80
2021/12/09 11:29:28;;;;;;;5.95;2.30;;;18.70;99.90;;;;;;5078238;28;20192;-76
2021/12/09 11:32:10;;;;;;;6.03;2.47;;;18.70;99.90;;;;;;5082899;28;20228;-85
2021/12/09 11:34:47;;;;;;;4.28;2.40;;;18.80;99.90;;;;;;5071491;28;20324;-83
2021/12/09 11:37:39;;;;;;;4.70;2.35;;;18.80;99.90;;;;;;5079701;28;20228;-84
2021/12/09 11:40:20;;;;;;;5.63;2.58;;;18.80;99.90;;;;;;5073991;28;20208;-86
2021/12/09 11:42:58;;;;;;;4.43;2.35;;;18.80;99.90;;;;;;5081156;28;20657;-83
2021/12/09 11:45:34;;;;;;;5.43;2.80;;;18.90;99.90;;;;;;5078255;28;20213;-86
2021/12/09 11:48:09;;;;;;;4.55;2.83;;;18.90;99.90;;;;;;5079798;28;20196;-84
2021/12/09 11:50:41;;;;;;;5.65;2.70;;;18.80;99.90;;;;;;5088257;28;20203;-86
2021/12/09 11:53:14;;;;;;;4.82;2.60;;;18.80;99.90;;;;;;5080608;28;20212;-86
2021/12/09 11:55:51;;;;;;;3.90;2.40;;;18.90;99.90;;;;;;5083931;28;20196;-83
2021/12/09 11:58:26;;;;;;;3.33;2.67;;;18.90;99.90;;;;;;5076961;28;20242;-78
2021/12/09 12:07:33;;;;;;;7.03;2.75;;;19.00;99.90;;;;;;5082490;28;20188;-78
2021/12/09 12:13:37;;;;;;;5.85;2.80;;;19.00;99.90;;;;;;5086187;28;20219;-87
2021/12/09 12:16:48;;;;;;;7.05;2.65;;;19.00;99.90;;;;;;5077258;28;20241;-88
2021/12/09 12:19:44;;;;;;;5.05;2.88;;;19.00;99.90;;;;;;5075076;28;20223;-83
2021/12/09 12:23:01;;;;;;;4.30;2.60;;;19.00;99.90;;;;;;5073604;28;20195;-83
2021/12/09 12:26:29;;;;;;;5.25;2.63;;;19.00;99.90;;;;;;5081180;28;20192;-88
2021/12/09 12:29:39;;;;;;;5.43;2.63;;;19.00;99.90;;;;;;5080815;28;20203;-88
2021/12/09 12:35:44;;;;;;;8.27;3.00;;;18.90;99.90;;;;;;5083565;28;20227;-86
2021/12/09 12:38:50;;;;;;;7.88;3.30;;;19.00;99.90;;;;;;5083845;28;20261;-87
2021/12/09 12:41:21;;;;;;;7.97;3.55;;;19.00;99.90;;;;;;5082678;28;20200;-84
2021/12/09 12:43:57;;;;;;;9.98;3.47;;;18.90;99.90;;;;;;5087622;28;20241;-85
2021/12/09 12:46:55;;;;;;;7.15;3.45;;;19.00;99.90;;;;;;5083548;28;20640;-81
2021/12/09 12:49:32;;;;;;;7.68;3.78;;;19.00;99.90;;;;;;5077801;28;20276;-80
2021/12/09 12:52:09;;;;;;;8.88;4.18;;;19.00;99.90;;;;;;5089409;28;20254;-82
2021/12/09 12:54:51;;;;;;;8.30;3.80;;;19.00;99.90;;;;;;5081934;28;20555;-76
2021/12/09 12:57:34;;;;;;;6.13;3.40;;;18.90;99.90;;;;;;5079931;28;20189;-83
2021/12/09 13:00:12;;;;;;;8.93;3.63;;;18.90;99.90;;;;;;5092521;28;20185;-80
2021/12/09 13:05:44;;;;;;;8.10;3.10;;;18.90;99.90;;;;;;5076112;28;20200;-78
2021/12/09 13:11:13;;;;;;;7.20;3.25;;;18.90;99.90;;;;;;5085760;28;20685;-82
2021/12/09 13:13:52;;;;;;;6.85;3.17;;;18.90;99.90;;;;;;5076085;28;20657;-83
2021/12/09 13:16:36;;;;;;;6.40;3.15;;;18.90;99.90;;;;;;5087540;28;20211;-79
2021/12/09 13:19:11;;;;;;;4.80;2.97;;;18.90;99.90;;;;;;5080705;28;20563;-82
2021/12/09 13:21:48;;;;;;;7.30;2.47;;;18.80;99.90;;;;;;5072752;28;20258;-83
2021/12/09 13:24:35;;;;;;;5.07;2.75;;;18.80;99.90;;;;;;5077114;28;20185;-84
2021/12/09 13:33:20;;;;;;;4.32;2.38;;;18.80;99.90;;;;;;5079335;28;20809;-81
2021/12/09 13:47:28;;;;;;;4.30;2.17;;;18.80;99.90;;;;;;5084512;28;20189;-86
2021/12/09 13:50:14;;;;;;;4.25;2.30;;;18.80;99.90;;;;;;5084406;28;20208;-83
2021/12/09 13:55:36;;;;;;;7.82;3.00;;;18.60;99.90;;;;;;5085964;28;20199;-87
2021/12/09 13:58:09;;;;;;;5.28;2.65;;;18.70;99.90;;;;;;5084414;28;20197;-84